createdAt,value
2022-11-19T00:00:19.677Z,3.65
2022-11-19T00:03:22.951Z,3.53
2022-11-19T00:06:27.838Z,2.92
2022-11-19T00:09:30.667Z,2.92
2022-11-19T00:12:51.576Z,3.62
2022-11-19T00:15:54.462Z,3.25
2022-11-19T00:18:57.035Z,2.85
2022-11-19T00:21:59.861Z,3.85
2022-11-19T00:25:03.563Z,3.75
2022-11-19T00:28:09.249Z,3.03
2022-11-19T00:31:18.042Z,3.70
2022-11-19T00:34:21.269Z,4.10
2022-11-19T00:37:23.850Z,3.17
2022-11-19T00:40:26.563Z,3.83
2022-11-19T00:43:49.279Z,3.30
2022-11-19T00:46:53.056Z,3.62
2022-11-19T00:50:18.057Z,3.40
2022-11-19T00:53:25.175Z,2.87
2022-11-19T00:56:50.468Z,4.28
2022-11-19T00:59:53.487Z,2.83
2022-11-19T01:02:58.299Z,3.87
2022-11-19T01:06:01.566Z,3.17
2022-11-19T01:09:04.758Z,4.10
2022-11-19T01:12:07.567Z,3.40
2022-11-19T01:15:12.301Z,3.10
2022-11-19T01:18:16.657Z,2.80
2022-11-19T01:21:24.404Z,3.42
2022-11-19T01:24:27.784Z,2.92
2022-11-19T01:27:34.602Z,3.30
2022-11-19T01:31:12.110Z,3.45
2022-11-19T01:34:16.870Z,3.00
2022-11-19T01:37:31.058Z,2.12
2022-11-19T01:40:45.629Z,3.08
2022-11-19T01:43:50.009Z,3.10
2022-11-19T01:46:52.755Z,3.00
2022-11-19T01:49:57.811Z,3.28
2022-11-19T01:53:03.030Z,2.70
2022-11-19T01:56:09.040Z,3.00
2022-11-19T01:59:20.172Z,3.17
2022-11-19T02:02:31.177Z,3.35
2022-11-19T02:05:35.215Z,2.90
2022-11-19T02:08:46.240Z,2.70
2022-11-19T02:12:21.871Z,3.25
2022-11-19T02:15:27.257Z,3.20
2022-11-19T02:18:52.231Z,3.33
2022-11-19T02:22:29.795Z,4.43
2022-11-19T02:26:27.094Z,3.28
2022-11-19T02:29:29.540Z,2.45
2022-11-19T02:32:39.020Z,4.72
2022-11-19T02:35:52.137Z,3.20
2022-11-19T02:39:13.692Z,6.28
2022-11-19T02:42:20.366Z,2.95
2022-11-19T02:45:39.635Z,4.28
2022-11-19T02:48:50.503Z,3.90
2022-11-19T02:51:54.513Z,4.40
2022-11-19T02:54:56.925Z,4.10
2022-11-19T02:58:08.812Z,4.20
2022-11-19T03:01:34.341Z,3.58
2022-11-19T03:04:40.427Z,4.20
2022-11-19T03:07:42.922Z,6.07
2022-11-19T03:10:56.538Z,4.50
2022-11-19T03:14:41.592Z,4.72
2022-11-19T03:17:55.514Z,4.32
2022-11-19T03:21:08.106Z,4.65
2022-11-19T03:24:28.926Z,3.95
2022-11-19T03:27:46.059Z,4.32
2022-11-19T03:30:56.898Z,3.78
2022-11-19T03:34:04.142Z,5.95
2022-11-19T03:37:11.514Z,5.97
2022-11-19T03:40:19.737Z,3.28
2022-11-19T03:43:27.105Z,4.22
2022-11-19T03:46:36.195Z,3.70
2022-11-19T03:49:45.147Z,4.30
2022-11-19T03:52:52.573Z,4.53
2022-11-19T03:59:04.566Z,4.53
2022-11-19T04:02:10.918Z,4.70
2022-11-19T04:05:16.601Z,4.95
2022-11-19T04:08:21.206Z,4.55
2022-11-19T04:11:40.818Z,2.65
2022-11-19T04:14:46.594Z,4.40
2022-11-19T04:17:50.258Z,3.78
2022-11-19T04:20:52.637Z,5.28
2022-11-19T04:23:55.587Z,4.35
2022-11-19T04:26:58.346Z,5.07
2022-11-19T04:30:05.704Z,3.78
2022-11-19T04:33:08.598Z,4.32
2022-11-19T04:36:11.673Z,4.95
2022-11-19T04:42:42.867Z,3.72
2022-11-19T04:45:49.019Z,2.65
2022-11-19T04:49:04.782Z,4.30
2022-11-19T04:52:09.822Z,4.07
2022-11-19T04:55:14.201Z,3.43
2022-11-19T04:58:17.825Z,5.03
2022-11-19T05:01:23.224Z,4.78
2022-11-19T05:04:28.682Z,5.30
2022-11-19T05:07:34.336Z,4.70
2022-11-19T05:10:37.268Z,3.40
2022-11-19T05:13:41.946Z,3.60
2022-11-19T05:16:44.700Z,4.43
2022-11-19T05:19:50.304Z,4.65
2022-11-19T05:22:52.865Z,3.45
2022-11-19T05:25:58.266Z,4.07
2022-11-19T05:29:03.362Z,3.53
2022-11-19T05:32:09.759Z,5.10
2022-11-19T05:35:14.374Z,3.12
2022-11-19T05:38:20.990Z,5.45
2022-11-19T05:41:24.353Z,4.10
2022-11-19T05:44:27.533Z,4.60
2022-11-19T05:47:33.927Z,4.25
2022-11-19T05:50:36.897Z,4.32
2022-11-19T05:53:39.383Z,6.47
2022-11-19T05:56:45.362Z,6.20
2022-11-19T05:59:47.946Z,6.62
2022-11-19T06:02:59.386Z,7.47
2022-11-19T06:06:03.738Z,5.25
2022-11-19T06:09:06.219Z,5.30
2022-11-19T06:12:09.295Z,4.68
2022-11-19T06:15:12.581Z,5.37
2022-11-19T06:18:15.720Z,7.57
2022-11-19T06:21:18.667Z,5.22
2022-11-19T06:24:23.874Z,4.22
2022-11-19T06:27:28.611Z,3.62
2022-11-19T06:30:31.726Z,4.62
2022-11-19T06:33:38.429Z,5.43
2022-11-19T06:36:50.590Z,5.30
2022-11-19T06:39:56.346Z,4.50
2022-11-19T06:42:59.182Z,5.25
2022-11-19T06:46:01.685Z,3.95
2022-11-19T06:49:07.007Z,4.62
2022-11-19T06:52:11.414Z,4.93
2022-11-19T06:55:17.815Z,6.05
2022-11-19T06:58:20.941Z,5.03
2022-11-19T07:01:24.334Z,3.58
2022-11-19T07:04:31.899Z,4.30
2022-11-19T07:07:37.804Z,5.05
2022-11-19T07:10:42.180Z,4.85
2022-11-19T07:14:00.256Z,5.60
2022-11-19T07:17:03.587Z,5.97
2022-11-19T07:20:07.559Z,6.90
2022-11-19T07:23:11.022Z,5.45
2022-11-19T07:26:17.715Z,5.12
2022-11-19T07:29:20.504Z,4.85
2022-11-19T07:32:23.622Z,4.50
2022-11-19T07:35:28.479Z,3.62
2022-11-19T07:38:37.368Z,5.12
2022-11-19T07:41:58.368Z,5.87
2022-11-19T07:45:01.467Z,4.60
2022-11-19T07:48:07.258Z,5.87
2022-11-19T07:51:11.460Z,4.95
2022-11-19T07:54:36.192Z,4.50
2022-11-19T07:57:43.332Z,5.32
2022-11-19T08:00:54.531Z,6.47
2022-11-19T08:04:05.698Z,3.80
2022-11-19T08:07:11.747Z,5.45
2022-11-19T08:10:15.835Z,6.57
2022-11-19T08:13:18.654Z,4.53
2022-11-19T08:16:41.044Z,4.97
2022-11-19T08:19:43.630Z,6.10
2022-11-19T08:22:46.715Z,5.10
2022-11-19T08:25:56.653Z,4.53
2022-11-19T08:29:05.335Z,3.92
2022-11-19T08:32:10.079Z,5.57
2022-11-19T08:35:35.011Z,6.37
2022-11-19T08:38:38.932Z,5.60
2022-11-19T08:42:01.072Z,6.35
2022-11-19T08:45:08.326Z,6.22
2022-11-19T08:48:34.811Z,5.07
2022-11-19T08:51:37.235Z,5.78
2022-11-19T08:54:40.358Z,5.53
2022-11-19T08:57:49.359Z,4.47
2022-11-19T09:00:56.178Z,4.87
2022-11-19T09:04:01.874Z,5.43
2022-11-19T09:07:08.647Z,6.30
2022-11-19T09:10:11.678Z,4.62
2022-11-19T09:13:18.153Z,6.57
2022-11-19T09:16:20.721Z,5.95
2022-11-19T09:19:24.274Z,5.70
2022-11-19T09:25:37.179Z,5.20
2022-11-19T09:29:03.144Z,5.22
2022-11-19T09:32:08.935Z,5.50
2022-11-19T09:35:19.874Z,5.47
2022-11-19T09:38:26.912Z,5.80
2022-11-19T09:41:48.640Z,4.97
2022-11-19T09:45:29.173Z,5.15
2022-11-19T09:48:37.525Z,5.32
2022-11-19T09:51:46.575Z,6.65
2022-11-19T09:54:54.770Z,5.65
2022-11-19T09:58:00.121Z,7.20
2022-11-19T10:01:04.775Z,5.93
2022-11-19T10:04:12.389Z,5.50
2022-11-19T10:07:47.444Z,5.68
2022-11-19T10:11:10.236Z,5.90
2022-11-19T10:15:07.396Z,6.15
2022-11-19T10:18:55.420Z,5.82
2022-11-19T10:22:04.334Z,5.78
2022-11-19T10:25:20.258Z,6.32
2022-11-19T10:31:48.037Z,6.55
2022-11-19T10:34:54.085Z,5.87
2022-11-19T10:41:14.665Z,5.85
2022-11-19T10:44:49.834Z,5.20
2022-11-19T10:48:24.616Z,5.78
2022-11-19T10:51:36.206Z,6.22
2022-11-19T10:54:49.998Z,7.97
2022-11-19T10:58:12.515Z,6.43
2022-11-19T11:01:22.524Z,6.78
2022-11-19T11:04:31.009Z,7.15
2022-11-19T11:07:53.135Z,6.70
2022-11-19T11:10:57.474Z,6.22
2022-11-19T11:14:19.377Z,7.30
2022-11-19T11:17:29.409Z,7.95
2022-11-19T11:20:32.674Z,7.15
2022-11-19T11:23:48.525Z,7.85
2022-11-19T11:27:20.651Z,6.85
2022-11-19T11:30:26.592Z,7.32
2022-11-19T11:33:41.332Z,7.95
2022-11-19T11:36:45.212Z,7.43
2022-11-19T11:39:52.646Z,6.78
2022-11-19T11:43:18.769Z,6.72
2022-11-19T11:46:22.000Z,8.63
2022-11-19T11:49:27.481Z,7.85
2022-11-19T11:52:38.081Z,7.55
2022-11-19T11:55:40.873Z,6.93
2022-11-19T11:58:44.101Z,7.57
2022-11-19T12:01:55.618Z,8.05
2022-11-19T12:05:22.828Z,7.32
2022-11-19T12:09:29.057Z,7.60
2022-11-19T12:12:50.850Z,7.32
2022-11-19T12:16:02.672Z,7.03
2022-11-19T12:19:18.465Z,8.38
2022-11-19T12:22:34.607Z,7.90
2022-11-19T12:26:02.681Z,8.32
2022-11-19T12:29:24.174Z,7.12
2022-11-19T12:32:44.247Z,7.60
2022-11-19T12:36:05.821Z,7.03
2022-11-19T12:39:56.235Z,6.40
2022-11-19T12:43:29.552Z,6.62
2022-11-19T12:46:56.387Z,6.35
2022-11-19T12:50:14.475Z,6.90
2022-11-19T12:53:31.380Z,7.62
2022-11-19T12:56:54.990Z,6.53
2022-11-19T13:00:23.974Z,5.82
2022-11-19T13:03:35.574Z,7.00
2022-11-19T13:06:49.350Z,5.87
2022-11-19T13:10:00.502Z,6.07
2022-11-19T13:13:08.110Z,6.10
2022-11-19T13:16:17.284Z,7.30
2022-11-19T13:19:33.399Z,7.35
2022-11-19T13:22:39.949Z,6.28
2022-11-19T13:25:58.477Z,6.60
2022-11-19T13:29:34.310Z,7.25
2022-11-19T13:32:49.372Z,7.32
2022-11-19T13:36:03.637Z,7.85
2022-11-19T13:39:19.673Z,7.78
2022-11-19T13:43:04.157Z,7.30
2022-11-19T13:46:12.002Z,6.55
2022-11-19T13:49:36.777Z,7.03
2022-11-19T13:52:44.463Z,7.95
2022-11-19T13:55:47.608Z,7.10
2022-11-19T13:58:56.766Z,7.10
2022-11-19T14:02:05.684Z,7.05
2022-11-19T14:05:27.058Z,7.03
2022-11-19T14:08:56.731Z,7.05
2022-11-19T14:12:03.542Z,6.28
2022-11-19T14:15:51.856Z,6.55
2022-11-19T14:19:19.797Z,7.12
2022-11-19T14:22:52.564Z,7.32
2022-11-19T14:26:14.431Z,6.78
2022-11-19T14:29:26.043Z,8.27
2022-11-19T14:32:43.988Z,7.55
2022-11-19T14:35:53.105Z,8.10
2022-11-19T14:39:01.841Z,7.60
2022-11-19T14:42:23.230Z,5.60
2022-11-19T14:45:28.474Z,6.00
2022-11-19T14:48:52.682Z,6.00
2022-11-19T14:51:57.690Z,7.05
2022-11-19T14:55:02.205Z,6.62
2022-11-19T14:58:19.714Z,7.53
2022-11-19T15:01:24.193Z,5.82
2022-11-19T15:04:41.204Z,6.20
2022-11-19T15:07:56.231Z,6.40
2022-11-19T15:11:01.874Z,6.43
2022-11-19T15:14:29.585Z,5.82
2022-11-19T15:17:35.988Z,6.40
2022-11-19T15:20:55.474Z,5.25
2022-11-19T15:24:21.455Z,5.57
2022-11-19T15:27:33.444Z,6.78
2022-11-19T15:31:10.684Z,7.12
2022-11-19T15:34:49.248Z,6.78
2022-11-19T15:38:29.850Z,4.00
2022-11-19T15:41:41.182Z,5.20
2022-11-19T15:44:59.041Z,6.20
2022-11-19T15:48:21.560Z,5.55
2022-11-19T15:51:24.692Z,4.07
2022-11-19T15:54:32.204Z,7.18
2022-11-19T15:57:43.815Z,5.70
2022-11-19T16:00:50.980Z,6.35
2022-11-19T16:03:56.703Z,6.07
2022-11-19T16:06:59.175Z,6.80
2022-11-19T16:10:22.279Z,5.07
2022-11-19T16:13:45.416Z,5.40
2022-11-19T16:17:10.729Z,4.05
2022-11-19T16:20:13.199Z,5.53
2022-11-19T16:23:25.077Z,6.35
2022-11-19T16:26:28.196Z,5.80
2022-11-19T16:29:36.742Z,6.07
2022-11-19T16:32:39.559Z,5.50
2022-11-19T16:35:42.780Z,7.15
2022-11-19T16:38:48.012Z,5.43
2022-11-19T16:45:58.159Z,5.28
2022-11-19T16:49:12.995Z,6.03
2022-11-19T16:52:37.346Z,4.70
2022-11-19T16:56:01.119Z,5.60
2022-11-19T16:59:05.177Z,4.90
2022-11-19T17:02:15.843Z,5.43
2022-11-19T17:05:22.572Z,5.50
2022-11-19T17:08:29.824Z,5.53
2022-11-19T17:11:57.137Z,3.42
2022-11-19T17:15:02.554Z,4.75
2022-11-19T17:18:33.051Z,4.57
2022-11-19T17:21:39.185Z,3.20
2022-11-19T17:24:43.891Z,4.53
2022-11-19T17:28:00.415Z,4.62
2022-11-19T17:31:07.228Z,4.85
2022-11-19T17:34:30.250Z,5.03
2022-11-19T17:37:32.677Z,4.75
2022-11-19T17:40:40.567Z,3.40
2022-11-19T17:44:03.775Z,3.90
2022-11-19T17:47:24.506Z,4.05
2022-11-19T17:50:29.590Z,3.67
2022-11-19T17:53:32.638Z,4.45
2022-11-19T17:56:34.985Z,4.70
2022-11-19T17:59:40.394Z,5.18
2022-11-19T18:02:49.077Z,5.57
2022-11-19T18:05:55.129Z,4.25
2022-11-19T18:08:57.561Z,4.20
2022-11-19T18:12:00.274Z,4.43
2022-11-19T18:15:07.772Z,5.12
2022-11-19T18:18:35.012Z,5.62
2022-11-19T18:21:40.153Z,5.18
2022-11-19T18:24:43.160Z,5.33
2022-11-19T18:27:46.118Z,7.00
2022-11-19T18:30:49.032Z,4.32
2022-11-19T18:33:53.657Z,3.53
2022-11-19T18:36:57.108Z,3.65
2022-11-19T18:43:25.339Z,4.85
2022-11-19T18:46:30.602Z,4.18
2022-11-19T18:49:34.523Z,4.93
2022-11-19T18:52:40.660Z,4.62
2022-11-19T18:58:50.815Z,5.18
2022-11-19T19:01:55.963Z,5.25
2022-11-19T19:04:58.543Z,4.05
2022-11-19T19:08:01.456Z,3.97
2022-11-19T19:11:25.375Z,5.78
2022-11-19T19:14:28.612Z,5.37
2022-11-19T19:17:31.287Z,4.12
2022-11-19T19:20:36.594Z,4.87
2022-11-19T19:23:44.068Z,5.37
2022-11-19T19:26:49.439Z,4.12
2022-11-19T19:29:54.556Z,5.60
2022-11-19T19:32:57.968Z,5.20
2022-11-19T19:36:03.898Z,5.18
2022-11-19T19:42:10.364Z,5.28
2022-11-19T19:45:13.434Z,5.07
2022-11-19T19:48:15.945Z,3.67
2022-11-19T19:51:20.812Z,3.85
2022-11-19T19:54:26.443Z,4.50
2022-11-19T19:57:30.347Z,4.95
2022-11-19T20:00:33.005Z,5.25
2022-11-19T20:03:38.988Z,5.45
2022-11-19T20:06:45.872Z,5.00
2022-11-19T20:09:48.599Z,5.05
2022-11-19T20:13:10.205Z,3.37
2022-11-19T20:16:18.162Z,4.07
2022-11-19T20:19:21.472Z,4.60
2022-11-19T20:22:28.652Z,4.55
2022-11-19T20:25:33.895Z,4.28
2022-11-19T20:28:39.949Z,3.35
2022-11-19T20:31:50.082Z,4.82
2022-11-19T20:34:53.480Z,4.50
2022-11-19T20:38:00.783Z,5.30
2022-11-19T20:41:32.758Z,4.53
2022-11-19T20:44:35.530Z,3.12
2022-11-19T20:47:40.362Z,4.68
2022-11-19T20:50:42.704Z,4.43
2022-11-19T20:53:47.702Z,4.07
2022-11-19T20:56:51.352Z,4.45
2022-11-19T20:59:54.100Z,4.68
2022-11-19T21:02:58.795Z,4.75
2022-11-19T21:06:03.702Z,4.28
2022-11-19T21:09:06.987Z,4.20
2022-11-19T21:12:14.065Z,3.42
2022-11-19T21:15:19.010Z,5.40
2022-11-19T21:18:36.996Z,5.32
2022-11-19T21:21:39.896Z,4.25
2022-11-19T21:24:46.410Z,4.12
2022-11-19T21:27:50.677Z,4.70
2022-11-19T21:30:53.646Z,4.97
2022-11-19T21:33:59.438Z,3.60
2022-11-19T21:37:02.849Z,3.92
2022-11-19T21:40:06.300Z,3.78
2022-11-19T21:43:09.471Z,4.28
2022-11-19T21:46:14.301Z,3.83
2022-11-19T21:49:17.518Z,3.12
2022-11-19T21:52:20.441Z,2.92
2022-11-19T21:55:24.130Z,3.03
2022-11-19T21:58:26.770Z,3.95
2022-11-19T22:01:30.103Z,3.37
2022-11-19T22:04:41.670Z,5.28
2022-11-19T22:07:46.748Z,3.08
2022-11-19T22:10:52.449Z,3.42
2022-11-19T22:14:09.425Z,4.07
2022-11-19T22:17:20.115Z,3.55
2022-11-19T22:20:24.690Z,3.50
2022-11-19T22:23:29.015Z,3.78
2022-11-19T22:26:33.287Z,4.03
2022-11-19T22:29:38.476Z,3.45
2022-11-19T22:32:46.860Z,3.67
2022-11-19T22:35:52.630Z,3.33
2022-11-19T22:38:59.231Z,3.15
2022-11-19T22:42:02.235Z,3.03
2022-11-19T22:45:05.534Z,3.50
2022-11-19T22:48:09.752Z,3.00
2022-11-19T22:51:23.512Z,2.72
2022-11-19T22:54:36.078Z,3.28
2022-11-19T22:57:43.624Z,3.67
2022-11-19T23:00:49.772Z,2.73
2022-11-19T23:03:53.229Z,2.47
2022-11-19T23:06:56.316Z,2.83
2022-11-19T23:09:58.798Z,3.20
2022-11-19T23:13:21.551Z,2.95
2022-11-19T23:16:27.045Z,2.80
2022-11-19T23:19:30.120Z,3.83
2022-11-19T23:22:34.457Z,3.37
2022-11-19T23:25:38.471Z,2.83
2022-11-19T23:28:50.394Z,3.85
2022-11-19T23:31:53.729Z,2.53
2022-11-19T23:34:56.552Z,2.85
2022-11-19T23:38:00.545Z,3.95
2022-11-19T23:41:06.508Z,3.62
2022-11-19T23:44:11.519Z,2.47
2022-11-19T23:47:14.237Z,2.97
2022-11-19T23:50:18.023Z,2.30
2022-11-19T23:53:21.141Z,3.35
2022-11-19T23:56:25.083Z,3.15
2022-11-19T23:59:30.007Z,2.70
